createdAt,value
2023-01-20T00:01:15.481Z,3.16
2023-01-20T00:03:44.556Z,3.22
2023-01-20T00:06:13.310Z,3.19
2023-01-20T00:08:42.797Z,3.26
2023-01-20T00:11:11.991Z,3.19
2023-01-20T00:13:40.628Z,3.29
2023-01-20T00:16:09.666Z,3.26
2023-01-20T00:18:38.096Z,3.29
2023-01-20T00:21:06.612Z,3.29
2023-01-20T00:23:34.656Z,3.34
2023-01-20T00:26:07.197Z,3.29
2023-01-20T00:28:35.537Z,3.29
2023-01-20T00:31:14.016Z,3.31
2023-01-20T00:33:42.740Z,3.32
2023-01-20T00:36:11.504Z,3.34
2023-01-20T00:38:39.950Z,3.28
2023-01-20T00:41:25.707Z,3.35
2023-01-20T00:43:53.780Z,3.35
2023-01-20T00:46:23.067Z,3.30
2023-01-20T00:48:51.106Z,3.33
2023-01-20T00:51:19.193Z,3.29
2023-01-20T00:53:47.082Z,3.35
2023-01-20T00:56:15.164Z,3.42
2023-01-20T00:58:45.608Z,3.43
2023-01-20T01:01:13.687Z,3.42
2023-01-20T01:03:41.832Z,3.41
2023-01-20T01:06:10.845Z,3.43
2023-01-20T01:08:38.711Z,3.44
2023-01-20T01:11:07.357Z,3.45
2023-01-20T01:13:35.743Z,3.46
2023-01-20T01:16:05.426Z,3.48
2023-01-20T01:18:33.405Z,3.48
2023-01-20T01:21:01.429Z,3.41
2023-01-20T01:23:29.426Z,3.44
2023-01-20T01:25:57.557Z,3.45
2023-01-20T01:28:25.502Z,3.41
2023-01-20T01:30:53.564Z,3.42
2023-01-20T01:33:23.015Z,3.43
2023-01-20T01:35:57.630Z,3.40
2023-01-20T01:38:25.984Z,3.42
2023-01-20T01:40:54.779Z,3.45
2023-01-20T01:43:25.033Z,3.48
2023-01-20T01:45:53.063Z,3.45
2023-01-20T01:48:24.382Z,3.42
2023-01-20T01:50:54.622Z,3.50
2023-01-20T01:53:22.667Z,3.49
2023-01-20T01:55:52.476Z,3.52
2023-01-20T02:01:18.374Z,3.57
2023-01-20T02:03:51.254Z,3.62
2023-01-20T02:06:19.740Z,3.51
2023-01-20T02:08:48.837Z,3.54
2023-01-20T02:11:16.746Z,3.55
2023-01-20T02:13:45.158Z,3.46
2023-01-20T02:16:16.669Z,3.53
2023-01-20T02:18:52.113Z,3.47
2023-01-20T02:21:36.297Z,3.48
2023-01-20T02:24:30.903Z,3.48
2023-01-20T02:27:04.951Z,3.50
2023-01-20T02:29:54.470Z,3.45
2023-01-20T02:32:27.909Z,3.49
2023-01-20T02:34:59.276Z,3.59
2023-01-20T02:37:29.480Z,3.51
2023-01-20T02:40:02.173Z,3.48
2023-01-20T02:42:38.115Z,3.45
2023-01-20T02:45:09.288Z,3.49
2023-01-20T02:47:40.986Z,3.47
2023-01-20T02:50:11.697Z,3.42
2023-01-20T02:52:41.156Z,3.43
2023-01-20T02:55:11.053Z,3.53
2023-01-20T02:57:42.302Z,3.52
2023-01-20T03:00:14.156Z,3.53
2023-01-20T03:02:45.597Z,3.51
2023-01-20T03:05:15.878Z,3.52
2023-01-20T03:07:45.857Z,3.60
2023-01-20T03:10:16.054Z,3.55
2023-01-20T03:12:47.363Z,3.50
2023-01-20T03:15:16.328Z,3.49
2023-01-20T03:17:46.209Z,3.48
2023-01-20T03:20:14.470Z,3.53
2023-01-20T03:22:42.831Z,3.55
2023-01-20T03:25:12.223Z,3.49
2023-01-20T03:27:40.668Z,3.53
2023-01-20T03:30:13.308Z,3.59
2023-01-20T03:32:42.093Z,3.51
2023-01-20T03:35:12.085Z,3.54
2023-01-20T03:37:40.230Z,3.60
2023-01-20T03:40:09.135Z,3.59
2023-01-20T03:42:40.939Z,3.65
2023-01-20T03:45:12.287Z,3.68
2023-01-20T03:47:46.247Z,3.66
2023-01-20T03:50:19.661Z,3.66
2023-01-20T03:52:50.407Z,3.73
2023-01-20T03:55:22.812Z,3.67
2023-01-20T03:57:54.540Z,3.71
2023-01-20T04:00:24.275Z,3.72
2023-01-20T04:02:53.867Z,3.69
2023-01-20T04:05:23.448Z,3.73
2023-01-20T04:07:53.256Z,3.71
2023-01-20T04:10:21.732Z,3.67
2023-01-20T04:12:50.233Z,3.69
2023-01-20T04:15:19.203Z,3.67
2023-01-20T04:17:47.245Z,3.69
2023-01-20T04:20:16.778Z,3.72
2023-01-20T04:22:49.359Z,3.75
2023-01-20T04:25:22.063Z,3.75
2023-01-20T04:27:50.091Z,3.76
2023-01-20T04:30:18.455Z,3.78
2023-01-20T04:32:46.461Z,3.81
2023-01-20T04:35:15.524Z,3.75
2023-01-20T04:40:26.154Z,3.77
2023-01-20T04:42:54.283Z,3.76
2023-01-20T04:45:22.447Z,3.74
2023-01-20T04:47:50.903Z,3.77
2023-01-20T04:50:18.800Z,3.82
2023-01-20T04:52:46.798Z,3.76
2023-01-20T04:55:15.248Z,3.80
2023-01-20T04:57:44.719Z,3.75
2023-01-20T05:00:18.707Z,3.76
2023-01-20T05:02:46.883Z,3.76
2023-01-20T05:05:15.267Z,3.80
2023-01-20T05:07:43.614Z,3.79
2023-01-20T05:10:13.259Z,3.88
2023-01-20T05:12:41.831Z,3.90
2023-01-20T05:15:11.955Z,3.93
2023-01-20T05:17:40.593Z,3.96
2023-01-20T05:20:09.236Z,4.01
2023-01-20T05:22:37.252Z,3.95
2023-01-20T05:25:05.998Z,4.00
2023-01-20T05:27:36.043Z,4.01
2023-01-20T05:30:04.227Z,3.99
2023-01-20T05:32:33.959Z,4.01
2023-01-20T05:37:41.713Z,3.95
2023-01-20T05:40:10.738Z,3.98
2023-01-20T05:42:38.879Z,4.03
2023-01-20T05:45:07.514Z,4.03
2023-01-20T05:47:36.950Z,4.09
2023-01-20T05:50:05.040Z,4.04
2023-01-20T05:52:33.095Z,4.12
2023-01-20T05:55:01.634Z,4.12
2023-01-20T05:57:30.965Z,4.13
2023-01-20T05:59:59.146Z,4.13
2023-01-20T06:02:27.122Z,4.13
2023-01-20T06:04:56.830Z,4.11
2023-01-20T06:07:25.550Z,4.13
2023-01-20T06:09:53.695Z,4.10
2023-01-20T06:12:25.206Z,4.16
2023-01-20T06:14:53.378Z,4.19
2023-01-20T06:17:21.594Z,4.17
2023-01-20T06:19:49.689Z,4.29
2023-01-20T06:22:21.250Z,4.22
2023-01-20T06:24:49.428Z,4.32
2023-01-20T06:27:17.753Z,4.23
2023-01-20T06:29:45.979Z,4.28
2023-01-20T06:32:14.029Z,4.30
2023-01-20T06:34:42.336Z,4.32
2023-01-20T06:37:10.554Z,4.36
2023-01-20T06:39:40.575Z,4.38
2023-01-20T06:42:08.723Z,4.44
2023-01-20T06:44:36.878Z,4.48
2023-01-20T06:47:05.098Z,4.49
2023-01-20T06:49:33.723Z,4.49
2023-01-20T06:52:02.052Z,4.48
2023-01-20T06:54:29.991Z,4.44
2023-01-20T06:56:59.605Z,4.47
2023-01-20T06:59:27.717Z,4.53
2023-01-20T07:01:56.082Z,4.58
2023-01-20T07:04:24.221Z,4.57
2023-01-20T07:06:52.356Z,4.52
2023-01-20T07:09:20.505Z,4.51
2023-01-20T07:11:48.567Z,4.50
2023-01-20T07:14:18.306Z,4.47
2023-01-20T07:16:47.386Z,4.45
2023-01-20T07:19:15.840Z,4.48
2023-01-20T07:21:44.148Z,4.52
2023-01-20T07:24:12.268Z,4.52
2023-01-20T07:26:40.372Z,4.50
2023-01-20T07:29:08.541Z,4.49
2023-01-20T07:31:38.876Z,4.49
2023-01-20T07:34:07.502Z,4.48
2023-01-20T07:36:35.670Z,4.50
2023-01-20T07:39:03.775Z,4.57
2023-01-20T07:41:32.221Z,4.58
2023-01-20T07:44:00.662Z,4.55
2023-01-20T07:46:28.667Z,4.51
2023-01-20T07:48:58.384Z,4.45
2023-01-20T07:51:26.402Z,4.51
2023-01-20T07:53:54.539Z,4.57
2023-01-20T07:56:23.736Z,4.64
2023-01-20T07:58:51.884Z,4.50
2023-01-20T08:01:21.421Z,4.58
2023-01-20T08:03:49.475Z,4.55
2023-01-20T08:06:19.658Z,4.60
2023-01-20T08:08:47.857Z,4.64
2023-01-20T08:11:17.118Z,4.72
2023-01-20T08:13:45.413Z,4.78
2023-01-20T08:16:15.032Z,4.72
2023-01-20T08:18:43.681Z,4.64
2023-01-20T08:21:19.215Z,4.65
2023-01-20T08:23:47.398Z,4.66
2023-01-20T08:26:15.982Z,4.78
2023-01-20T08:28:44.070Z,4.82
2023-01-20T08:31:13.137Z,4.83
2023-01-20T08:33:42.747Z,4.83
2023-01-20T08:36:12.142Z,4.85
2023-01-20T08:38:41.735Z,4.92
2023-01-20T08:41:10.443Z,5.00
2023-01-20T08:43:38.712Z,5.03
2023-01-20T08:46:07.978Z,4.95
2023-01-20T08:49:03.129Z,5.01
2023-01-20T08:51:32.937Z,5.03
2023-01-20T08:54:02.874Z,5.02
2023-01-20T08:56:31.376Z,5.09
2023-01-20T09:01:58.611Z,5.14
2023-01-20T09:04:26.789Z,5.15
2023-01-20T09:06:54.794Z,5.28
2023-01-20T09:09:24.596Z,5.33
2023-01-20T09:11:52.550Z,5.27
2023-01-20T09:14:21.037Z,5.25
2023-01-20T09:16:49.361Z,5.24
2023-01-20T09:19:17.550Z,5.30
2023-01-20T09:21:45.821Z,5.29
2023-01-20T09:24:13.772Z,5.28
2023-01-20T09:26:43.101Z,5.24
2023-01-20T09:29:12.443Z,5.13
2023-01-20T09:31:44.578Z,5.17
2023-01-20T09:34:15.399Z,5.22
2023-01-20T09:36:43.444Z,5.21
2023-01-20T09:39:29.855Z,5.23
2023-01-20T09:42:19.969Z,5.29
2023-01-20T09:44:50.145Z,5.35
2023-01-20T09:47:29.681Z,5.28
2023-01-20T09:50:32.099Z,5.23
2023-01-20T09:53:05.393Z,5.26
2023-01-20T09:55:40.156Z,5.17
2023-01-20T09:58:13.107Z,5.23
2023-01-20T10:00:42.476Z,5.28
2023-01-20T10:03:14.847Z,5.26
2023-01-20T10:05:46.457Z,5.29
2023-01-20T10:08:21.619Z,5.34
2023-01-20T10:10:53.161Z,5.49
2023-01-20T10:13:25.656Z,5.62
2023-01-20T10:15:55.690Z,5.57
2023-01-20T10:21:14.917Z,5.68
2023-01-20T10:23:44.211Z,5.72
2023-01-20T10:26:14.599Z,5.65
2023-01-20T10:28:47.038Z,5.61
2023-01-20T10:31:19.310Z,5.63
2023-01-20T10:33:47.614Z,5.72
2023-01-20T10:36:17.923Z,5.74
2023-01-20T10:38:54.041Z,5.77
2023-01-20T10:41:25.585Z,5.83
2023-01-20T10:43:55.304Z,5.92
2023-01-20T10:46:34.486Z,6.01
2023-01-20T10:49:13.759Z,6.05
2023-01-20T10:51:46.266Z,6.11
2023-01-20T10:54:19.021Z,5.94
2023-01-20T10:56:53.872Z,5.96
2023-01-20T10:59:28.245Z,6.02
2023-01-20T11:02:10.940Z,6.06
2023-01-20T11:04:40.027Z,6.02
2023-01-20T11:07:14.511Z,6.01
2023-01-20T11:09:42.832Z,5.91
2023-01-20T11:12:14.315Z,5.91
2023-01-20T11:14:44.303Z,5.78
2023-01-20T11:17:15.719Z,5.71
2023-01-20T11:19:51.148Z,5.64
2023-01-20T11:22:23.708Z,5.69
2023-01-20T11:24:55.188Z,5.63
2023-01-20T11:27:25.139Z,5.63
2023-01-20T11:29:58.047Z,5.65
2023-01-20T11:32:27.650Z,5.64
2023-01-20T11:34:56.222Z,5.65
2023-01-20T11:37:27.000Z,5.78
2023-01-20T11:40:00.767Z,5.87
2023-01-20T11:42:29.549Z,5.98
2023-01-20T11:45:15.375Z,5.98
2023-01-20T11:48:00.639Z,5.91
2023-01-20T11:50:31.284Z,5.88
2023-01-20T11:53:13.413Z,5.93
2023-01-20T11:55:46.891Z,5.89
2023-01-20T11:58:18.594Z,5.76
2023-01-20T12:00:48.900Z,5.76
2023-01-20T12:03:34.132Z,5.75
2023-01-20T12:06:05.173Z,5.61
2023-01-20T12:08:36.473Z,5.59
2023-01-20T12:11:09.722Z,5.54
2023-01-20T12:13:54.607Z,5.44
2023-01-20T12:16:25.743Z,5.44
2023-01-20T12:19:02.314Z,5.39
2023-01-20T12:21:35.734Z,5.42
2023-01-20T12:24:06.485Z,5.35
2023-01-20T12:26:36.371Z,5.39
2023-01-20T12:29:14.990Z,5.43
2023-01-20T12:31:49.092Z,5.48
2023-01-20T12:34:17.881Z,5.51
2023-01-20T12:37:06.835Z,5.54
2023-01-20T12:39:49.590Z,5.52
2023-01-20T12:42:44.719Z,5.54
2023-01-20T12:45:17.077Z,5.51
2023-01-20T12:47:51.726Z,5.46
2023-01-20T12:50:25.720Z,5.43
2023-01-20T12:53:03.826Z,5.50
2023-01-20T12:55:38.944Z,5.46
2023-01-20T12:58:11.167Z,5.41
2023-01-20T13:00:45.467Z,5.30
2023-01-20T13:03:31.477Z,5.25
2023-01-20T13:06:11.462Z,5.21
2023-01-20T13:08:43.584Z,5.14
2023-01-20T13:11:16.718Z,5.11
2023-01-20T13:13:57.359Z,5.04
2023-01-20T13:16:32.612Z,4.89
2023-01-20T13:19:04.961Z,4.87
2023-01-20T13:21:35.037Z,4.85
2023-01-20T13:24:04.364Z,4.82
2023-01-20T13:26:32.970Z,4.66
2023-01-20T13:29:01.120Z,4.67
2023-01-20T13:31:34.907Z,4.60
2023-01-20T13:34:21.621Z,4.60
2023-01-20T13:37:04.494Z,4.56
2023-01-20T13:39:41.865Z,4.53
2023-01-20T13:42:24.716Z,4.52
2023-01-20T13:45:11.652Z,4.47
2023-01-20T13:48:03.610Z,4.56
2023-01-20T13:50:33.105Z,4.55
2023-01-20T13:53:19.057Z,4.57
2023-01-20T13:55:55.191Z,4.61
2023-01-20T13:58:24.817Z,4.65
2023-01-20T14:00:53.512Z,4.61
2023-01-20T14:03:26.240Z,4.58
2023-01-20T14:05:55.054Z,4.49
2023-01-20T14:08:23.574Z,4.45
2023-01-20T14:10:51.749Z,4.38
2023-01-20T14:13:22.765Z,4.36
2023-01-20T14:15:52.143Z,4.32
2023-01-20T14:18:21.910Z,4.32
2023-01-20T14:21:03.319Z,4.28
2023-01-20T14:23:33.263Z,4.25
2023-01-20T14:26:02.771Z,4.25
2023-01-20T14:28:32.846Z,4.25
2023-01-20T14:31:13.502Z,4.22
2023-01-20T14:33:45.958Z,4.17
2023-01-20T14:36:16.269Z,4.16
2023-01-20T14:38:56.595Z,4.17
2023-01-20T14:41:26.273Z,4.12
2023-01-20T14:43:56.063Z,4.12
2023-01-20T14:46:24.522Z,4.04
2023-01-20T14:48:53.316Z,4.02
2023-01-20T14:51:21.771Z,3.99
2023-01-20T14:54:09.875Z,3.94
2023-01-20T14:56:37.888Z,3.93
2023-01-20T14:59:19.579Z,3.85
2023-01-20T15:01:52.085Z,3.75
2023-01-20T15:04:20.346Z,3.73
2023-01-20T15:06:52.850Z,3.71
2023-01-20T15:09:28.008Z,3.69
2023-01-20T15:12:11.255Z,3.69
2023-01-20T15:14:41.438Z,3.63
2023-01-20T15:17:09.906Z,3.65
2023-01-20T15:19:37.990Z,3.68
2023-01-20T15:22:17.834Z,3.66
2023-01-20T15:24:47.422Z,3.71
2023-01-20T15:27:33.610Z,3.66
2023-01-20T15:30:05.546Z,3.67
2023-01-20T15:32:33.573Z,3.68
2023-01-20T15:35:01.597Z,3.70
2023-01-20T15:37:30.754Z,3.63
2023-01-20T15:39:59.660Z,3.61
2023-01-20T15:42:27.595Z,3.56
2023-01-20T15:44:55.600Z,3.59
2023-01-20T15:47:31.074Z,3.58
2023-01-20T15:49:59.460Z,3.56
2023-01-20T15:52:27.540Z,3.51
2023-01-20T15:54:55.774Z,3.44
2023-01-20T15:57:23.800Z,3.47
2023-01-20T15:59:52.323Z,3.52
2023-01-20T16:02:21.285Z,3.51
2023-01-20T16:04:51.101Z,3.49
2023-01-20T16:07:19.948Z,3.50
2023-01-20T16:09:48.748Z,3.45
2023-01-20T16:12:17.592Z,3.41
2023-01-20T16:14:46.016Z,3.44
2023-01-20T16:17:15.387Z,3.43
2023-01-20T16:19:43.316Z,3.39
2023-01-20T16:22:13.679Z,3.42
2023-01-20T16:24:42.496Z,3.45
2023-01-20T16:27:15.728Z,3.45
2023-01-20T16:29:43.770Z,3.47
2023-01-20T16:32:12.148Z,3.48
2023-01-20T16:34:40.284Z,3.48
2023-01-20T16:37:08.307Z,3.59
2023-01-20T16:39:37.853Z,3.66
2023-01-20T16:42:05.981Z,3.73
2023-01-20T16:44:33.890Z,3.73
2023-01-20T16:47:02.072Z,3.50
2023-01-20T16:49:30.193Z,3.66
2023-01-20T16:51:58.198Z,3.59
2023-01-20T16:54:26.353Z,3.49
2023-01-20T16:56:55.625Z,3.49
2023-01-20T16:59:23.991Z,3.53
2023-01-20T17:01:52.500Z,3.49
2023-01-20T17:04:20.841Z,3.45
2023-01-20T17:06:49.100Z,3.58
2023-01-20T17:09:17.049Z,3.62
2023-01-20T17:11:45.012Z,3.63
2023-01-20T17:14:15.720Z,3.62
2023-01-20T17:16:43.803Z,3.60
2023-01-20T17:19:13.296Z,3.57
2023-01-20T17:21:41.515Z,3.47
2023-01-20T17:24:11.583Z,3.47
2023-01-20T17:26:39.849Z,3.47
2023-01-20T17:29:08.751Z,3.51
2023-01-20T17:31:40.529Z,3.54
2023-01-20T17:34:10.386Z,3.56
2023-01-20T17:36:39.151Z,3.63
2023-01-20T17:39:07.633Z,3.67
2023-01-20T17:41:35.885Z,3.73
2023-01-20T17:44:04.278Z,3.79
2023-01-20T17:46:32.624Z,3.89
2023-01-20T17:49:04.805Z,3.94
2023-01-20T17:51:33.973Z,3.85
2023-01-20T17:54:05.144Z,3.95
2023-01-20T17:56:33.319Z,3.90
2023-01-20T17:59:01.412Z,3.88
2023-01-20T18:01:30.559Z,3.89
2023-01-20T18:03:59.475Z,3.96
2023-01-20T18:06:30.831Z,3.87
2023-01-20T18:09:00.722Z,3.93
2023-01-20T18:11:29.964Z,3.88
2023-01-20T18:13:58.820Z,3.96
2023-01-20T18:16:28.849Z,3.95
2023-01-20T18:18:59.186Z,4.01
2023-01-20T18:21:29.962Z,4.06
2023-01-20T18:23:58.485Z,4.00
2023-01-20T18:26:27.396Z,3.95
2023-01-20T18:28:56.213Z,3.97
2023-01-20T18:31:25.273Z,3.92
2023-01-20T18:33:56.695Z,3.97
2023-01-20T18:36:25.480Z,3.96
2023-01-20T18:38:56.237Z,3.96
2023-01-20T18:41:24.570Z,3.97
2023-01-20T18:43:52.493Z,3.98
2023-01-20T18:46:21.025Z,3.88
2023-01-20T18:48:49.265Z,3.88
2023-01-20T18:51:20.747Z,3.94
2023-01-20T18:53:54.018Z,3.88
2023-01-20T18:56:24.653Z,3.89
2023-01-20T18:58:54.029Z,3.89
2023-01-20T19:01:23.372Z,3.93
2023-01-20T19:03:52.414Z,3.87
2023-01-20T19:06:21.322Z,3.92
2023-01-20T19:08:49.522Z,3.94
2023-01-20T19:11:19.010Z,3.78
2023-01-20T19:13:49.004Z,3.64
2023-01-20T19:16:17.785Z,3.67
2023-01-20T19:18:46.501Z,3.61
2023-01-20T19:21:22.881Z,3.54
2023-01-20T19:23:51.644Z,3.51
2023-01-20T19:26:20.558Z,3.49
2023-01-20T19:28:56.336Z,3.44
2023-01-20T19:31:24.622Z,3.43
2023-01-20T19:33:53.111Z,3.43
2023-01-20T19:36:21.374Z,3.43
2023-01-20T19:38:49.636Z,3.46
2023-01-20T19:41:18.690Z,3.41
2023-01-20T19:43:46.875Z,3.43
2023-01-20T19:46:17.918Z,3.36
2023-01-20T19:48:46.179Z,3.33
2023-01-20T19:51:15.579Z,3.33
2023-01-20T19:53:44.258Z,3.28
2023-01-20T19:56:12.901Z,3.25
2023-01-20T19:58:41.932Z,3.19
2023-01-20T20:01:13.096Z,3.18
2023-01-20T20:03:42.905Z,3.15
2023-01-20T20:06:23.318Z,3.12
2023-01-20T20:08:51.728Z,3.15
2023-01-20T20:11:19.718Z,3.11
2023-01-20T20:13:47.715Z,3.10
2023-01-20T20:16:16.175Z,3.03
2023-01-20T20:18:49.372Z,2.89
2023-01-20T20:21:17.397Z,2.97
2023-01-20T20:23:45.540Z,2.94
2023-01-20T20:26:13.502Z,2.93
2023-01-20T20:28:41.620Z,2.84
2023-01-20T20:31:09.990Z,2.88
2023-01-20T20:33:38.055Z,2.93
2023-01-20T20:36:11.452Z,2.85
2023-01-20T20:38:39.419Z,2.81
2023-01-20T20:41:08.286Z,2.84
2023-01-20T20:43:36.594Z,2.85
2023-01-20T20:46:05.818Z,2.90
2023-01-20T20:48:34.692Z,2.82
2023-01-20T20:51:06.530Z,2.92
2023-01-20T20:53:36.061Z,2.88
2023-01-20T20:56:07.974Z,2.80
2023-01-20T20:58:36.146Z,2.89
2023-01-20T21:01:07.824Z,2.84
2023-01-20T21:03:36.772Z,2.71
2023-01-20T21:06:05.095Z,2.73
2023-01-20T21:08:33.265Z,2.74
2023-01-20T21:11:02.789Z,2.70
2023-01-20T21:13:31.304Z,2.68
2023-01-20T21:16:01.252Z,2.63
2023-01-20T21:18:29.670Z,2.57
2023-01-20T21:20:58.355Z,2.54
2023-01-20T21:23:26.594Z,2.52
2023-01-20T21:25:54.592Z,2.49
2023-01-20T21:28:24.751Z,2.53
2023-01-20T21:30:52.771Z,2.44
2023-01-20T21:33:20.810Z,2.45
2023-01-20T21:35:48.784Z,2.41
2023-01-20T21:38:16.855Z,2.41
2023-01-20T21:41:00.044Z,2.42
2023-01-20T21:43:48.711Z,2.33
2023-01-20T21:46:16.708Z,2.38
2023-01-20T21:49:02.137Z,2.35
2023-01-20T21:54:28.396Z,2.28
2023-01-20T21:56:56.575Z,2.30
2023-01-20T21:59:26.272Z,2.27
2023-01-20T22:01:54.322Z,2.26
2023-01-20T22:04:22.250Z,2.26
2023-01-20T22:06:50.456Z,2.14
2023-01-20T22:09:18.448Z,2.16
2023-01-20T22:11:46.460Z,2.13
2023-01-20T22:14:14.432Z,2.12
2023-01-20T22:16:44.342Z,2.08
2023-01-20T22:19:12.995Z,2.05
2023-01-20T22:21:40.955Z,2.05
2023-01-20T22:24:09.404Z,1.93
2023-01-20T22:26:37.491Z,1.99
2023-01-20T22:29:05.580Z,1.93
2023-01-20T22:34:16.478Z,1.90
2023-01-20T22:36:45.166Z,1.82
2023-01-20T22:39:13.146Z,1.82
2023-01-20T22:41:41.255Z,1.80
2023-01-20T22:44:09.631Z,1.78
2023-01-20T22:46:39.990Z,1.77
2023-01-20T22:49:08.050Z,1.77
2023-01-20T22:51:37.429Z,1.72
2023-01-20T22:54:07.343Z,1.71
2023-01-20T22:56:35.511Z,1.70
2023-01-20T22:59:03.534Z,1.66
2023-01-20T23:01:32.589Z,1.61
2023-01-20T23:04:02.135Z,1.61
2023-01-20T23:06:30.890Z,1.60
2023-01-20T23:09:00.635Z,1.54
2023-01-20T23:11:28.719Z,1.60
2023-01-20T23:13:56.809Z,1.61
2023-01-20T23:16:24.838Z,1.48
2023-01-20T23:18:53.274Z,1.49
2023-01-20T23:21:21.805Z,1.51
2023-01-20T23:23:54.401Z,1.46
2023-01-20T23:26:24.985Z,1.48
2023-01-20T23:28:54.083Z,1.48
2023-01-20T23:31:22.723Z,1.47
2023-01-20T23:33:51.150Z,1.47
2023-01-20T23:36:20.257Z,1.40
2023-01-20T23:38:48.585Z,1.38
2023-01-20T23:41:17.255Z,1.30
2023-01-20T23:43:46.558Z,1.36
2023-01-20T23:46:14.576Z,1.31
2023-01-20T23:48:42.581Z,1.30
2023-01-20T23:51:11.487Z,1.26
2023-01-20T23:53:40.504Z,1.32
2023-01-20T23:56:11.185Z,1.27
2023-01-20T23:58:39.538Z,1.24
